createdAt,value
2023-05-16T00:00:53.307Z,17.70
2023-05-16T00:03:21.490Z,16.02
2023-05-16T00:05:50.504Z,17.67
2023-05-16T00:08:18.142Z,18.10
2023-05-16T00:10:45.859Z,15.88
2023-05-16T00:13:13.625Z,19.67
2023-05-16T00:15:41.696Z,17.10
2023-05-16T00:18:09.993Z,15.73
2023-05-16T00:20:38.381Z,20.15
2023-05-16T00:23:06.115Z,16.38
2023-05-16T00:25:33.971Z,16.38
2023-05-16T00:28:01.689Z,18.05
2023-05-16T00:30:29.578Z,15.73
2023-05-16T00:32:57.519Z,18.90
2023-05-16T00:35:25.416Z,20.05
2023-05-16T00:37:53.234Z,18.52
2023-05-16T00:40:22.780Z,19.88
2023-05-16T00:42:50.689Z,17.92
2023-05-16T00:45:19.033Z,20.42
2023-05-16T00:47:48.935Z,23.50
2023-05-16T00:50:18.048Z,22.58
2023-05-16T00:52:45.979Z,23.02
2023-05-16T00:55:15.560Z,23.83
2023-05-16T00:57:43.423Z,21.65
2023-05-16T01:00:12.555Z,22.00
2023-05-16T01:02:40.601Z,24.30
2023-05-16T01:05:09.335Z,25.67
2023-05-16T01:07:37.853Z,25.40
2023-05-16T01:10:09.274Z,26.30
2023-05-16T01:13:09.341Z,24.33
2023-05-16T01:15:54.222Z,26.02
2023-05-16T01:18:44.863Z,24.48
2023-05-16T01:21:21.601Z,29.55
2023-05-16T01:24:00.781Z,34.38
2023-05-16T01:26:30.088Z,45.33
2023-05-16T01:28:58.895Z,41.85
2023-05-16T01:31:26.806Z,29.52
2023-05-16T01:33:54.664Z,40.55
2023-05-16T01:36:25.469Z,31.20
2023-05-16T01:39:27.093Z,28.67
2023-05-16T01:42:09.939Z,27.90
2023-05-16T01:45:12.549Z,27.63
2023-05-16T01:47:45.084Z,28.60
2023-05-16T01:50:20.458Z,28.27
2023-05-16T01:52:48.182Z,30.02
2023-05-16T01:55:42.340Z,28.98
2023-05-16T01:58:11.462Z,28.58
2023-05-16T02:00:41.024Z,30.23
2023-05-16T02:03:09.288Z,28.75
2023-05-16T02:05:37.231Z,31.42
2023-05-16T02:08:05.360Z,30.75
2023-05-16T02:10:33.126Z,29.48
2023-05-16T02:13:00.987Z,28.63
2023-05-16T02:15:29.753Z,28.85
2023-05-16T02:17:58.683Z,31.17
2023-05-16T02:20:26.709Z,28.77
2023-05-16T02:22:55.064Z,31.45
2023-05-16T02:25:23.036Z,30.33
2023-05-16T02:27:50.800Z,29.25
2023-05-16T02:30:18.640Z,29.50
2023-05-16T02:32:46.581Z,30.10
2023-05-16T02:35:14.893Z,27.77
2023-05-16T02:37:42.866Z,27.75
2023-05-16T02:40:11.507Z,29.95
2023-05-16T02:42:39.321Z,29.08
2023-05-16T02:45:07.844Z,28.25
2023-05-16T02:47:35.794Z,23.75
2023-05-16T02:50:03.824Z,25.08
2023-05-16T02:52:31.608Z,26.90
2023-05-16T02:55:16.101Z,26.02
2023-05-16T02:57:47.416Z,26.52
2023-05-16T03:00:17.836Z,24.35
2023-05-16T03:02:46.946Z,25.27
2023-05-16T03:05:14.893Z,22.15
2023-05-16T03:07:42.641Z,22.13
2023-05-16T03:10:11.182Z,23.02
2023-05-16T03:12:39.517Z,23.20
2023-05-16T03:15:09.287Z,22.75
2023-05-16T03:17:37.547Z,22.58
2023-05-16T03:20:09.123Z,25.15
2023-05-16T03:22:37.213Z,22.73
2023-05-16T03:25:05.798Z,20.90
2023-05-16T03:27:33.598Z,23.58
2023-05-16T03:30:01.351Z,26.33
2023-05-16T03:32:29.621Z,21.17
2023-05-16T03:34:57.484Z,24.92
2023-05-16T03:37:26.448Z,20.92
2023-05-16T03:39:54.339Z,20.50
2023-05-16T03:42:22.165Z,22.35
2023-05-16T03:44:49.910Z,21.60
2023-05-16T03:47:17.739Z,20.98
2023-05-16T03:49:45.472Z,22.98
2023-05-16T03:52:13.178Z,24.67
2023-05-16T03:54:40.884Z,26.42
2023-05-16T03:57:08.622Z,20.67
2023-05-16T03:59:36.395Z,20.67
2023-05-16T04:02:04.445Z,22.55
2023-05-16T04:04:32.641Z,20.63
2023-05-16T04:07:02.155Z,20.90
2023-05-16T04:09:29.888Z,18.80
2023-05-16T04:11:57.703Z,24.20
2023-05-16T04:14:25.535Z,26.20
2023-05-16T04:16:53.299Z,35.70
2023-05-16T04:19:21.188Z,22.42
2023-05-16T04:21:49.014Z,24.67
2023-05-16T04:24:16.801Z,22.25
2023-05-16T04:26:45.053Z,19.48
2023-05-16T04:29:14.333Z,20.48
2023-05-16T04:31:42.115Z,20.48
2023-05-16T04:34:09.891Z,19.30
2023-05-16T04:36:38.414Z,19.95
2023-05-16T04:39:06.565Z,22.45
2023-05-16T04:41:36.129Z,21.67
2023-05-16T04:44:04.538Z,22.55
2023-05-16T04:46:32.616Z,24.73
2023-05-16T04:49:00.418Z,20.48
2023-05-16T04:51:28.599Z,18.35
2023-05-16T04:53:56.409Z,18.98
2023-05-16T04:56:24.237Z,16.90
2023-05-16T04:58:52.005Z,17.05
2023-05-16T05:01:19.823Z,17.23
2023-05-16T05:03:48.420Z,21.80
2023-05-16T05:06:16.524Z,18.73
2023-05-16T05:08:44.290Z,18.23
2023-05-16T05:11:12.080Z,17.63
2023-05-16T05:13:41.258Z,16.70
2023-05-16T05:16:09.198Z,21.60
2023-05-16T05:18:37.010Z,18.35
2023-05-16T05:21:04.933Z,17.17
2023-05-16T05:23:35.062Z,18.63
2023-05-16T05:26:02.810Z,14.20
2023-05-16T05:28:30.635Z,15.88
2023-05-16T05:30:58.389Z,16.38
2023-05-16T05:33:29.607Z,16.88
2023-05-16T05:35:57.755Z,13.40
2023-05-16T05:38:26.002Z,15.98
2023-05-16T05:40:53.821Z,16.90
2023-05-16T05:43:21.552Z,14.73
2023-05-16T05:45:49.642Z,15.35
2023-05-16T05:48:18.665Z,13.73
2023-05-16T05:50:46.433Z,13.80
2023-05-16T05:53:14.219Z,12.95
2023-05-16T05:55:42.293Z,13.90
2023-05-16T05:58:10.107Z,12.13
2023-05-16T06:00:39.919Z,11.43
2023-05-16T06:03:07.848Z,12.63
2023-05-16T06:05:36.068Z,10.90
2023-05-16T06:08:03.981Z,9.82
2023-05-16T06:10:31.763Z,9.40
2023-05-16T06:13:02.579Z,7.28
2023-05-16T06:15:30.764Z,8.07
2023-05-16T06:17:58.643Z,6.50
2023-05-16T06:20:26.527Z,7.50
2023-05-16T06:22:54.576Z,7.38
2023-05-16T06:25:22.443Z,7.03
2023-05-16T06:27:50.727Z,7.05
2023-05-16T06:30:20.678Z,5.43
2023-05-16T06:32:48.668Z,6.15
2023-05-16T06:35:16.760Z,5.75
2023-05-16T06:37:46.464Z,5.65
2023-05-16T06:40:14.901Z,8.35
2023-05-16T06:42:43.104Z,4.43
2023-05-16T06:45:13.074Z,4.07
2023-05-16T06:47:41.213Z,5.70
2023-05-16T06:50:10.988Z,3.22
2023-05-16T06:55:10.254Z,3.42
2023-05-16T06:57:38.031Z,4.38
2023-05-16T07:00:07.264Z,2.85
2023-05-16T07:02:35.146Z,5.60
2023-05-16T07:05:03.067Z,13.15
2023-05-16T07:07:30.961Z,3.83
2023-05-16T07:09:59.017Z,2.85
2023-05-16T07:12:26.793Z,2.30
2023-05-16T07:14:54.667Z,2.38
2023-05-16T07:17:22.459Z,2.10
2023-05-16T07:19:51.642Z,4.43
2023-05-16T07:22:19.718Z,1.90
2023-05-16T07:24:47.567Z,1.80
2023-05-16T07:27:15.613Z,1.70
2023-05-16T07:29:45.149Z,1.70
2023-05-16T07:32:15.057Z,1.70
2023-05-16T07:34:45.030Z,1.73
2023-05-16T07:37:13.782Z,1.23
2023-05-16T07:39:43.806Z,1.58
2023-05-16T07:42:11.909Z,1.58
2023-05-16T07:44:39.654Z,1.40
2023-05-16T07:47:07.696Z,1.33
2023-05-16T07:49:35.504Z,2.25
2023-05-16T07:52:05.196Z,1.50
2023-05-16T07:54:35.718Z,1.20
2023-05-16T07:57:04.373Z,1.10
2023-05-16T07:59:32.272Z,2.05
2023-05-16T08:02:00.340Z,1.10
2023-05-16T08:04:28.686Z,1.30
2023-05-16T08:06:56.441Z,1.10
2023-05-16T08:09:27.088Z,0.90
2023-05-16T08:11:54.805Z,1.10
2023-05-16T08:14:22.638Z,2.55
2023-05-16T08:16:50.568Z,1.67
2023-05-16T08:19:18.312Z,2.58
2023-05-16T08:21:47.402Z,1.13
2023-05-16T08:24:17.023Z,1.23
2023-05-16T08:26:47.217Z,0.88
2023-05-16T08:29:15.088Z,1.10
2023-05-16T08:31:43.024Z,2.05
2023-05-16T08:34:10.851Z,1.48
2023-05-16T08:36:39.189Z,1.70
2023-05-16T08:39:07.679Z,1.02
2023-05-16T08:41:35.613Z,3.25
2023-05-16T08:44:04.090Z,1.30
2023-05-16T08:46:35.844Z,2.58
2023-05-16T08:49:08.013Z,1.30
2023-05-16T08:51:38.388Z,1.60
2023-05-16T08:54:13.658Z,1.00
2023-05-16T08:56:45.930Z,2.55
2023-05-16T08:59:13.982Z,1.52
2023-05-16T09:01:42.262Z,1.10
2023-05-16T09:04:12.111Z,0.82
2023-05-16T09:06:41.965Z,1.23
2023-05-16T09:09:12.951Z,1.95
2023-05-16T09:11:43.056Z,0.98
2023-05-16T09:14:10.847Z,1.63
2023-05-16T09:16:39.235Z,0.85
2023-05-16T09:19:07.134Z,0.65
2023-05-16T09:21:36.029Z,0.57
2023-05-16T09:24:08.861Z,0.70
2023-05-16T09:26:39.382Z,1.88
2023-05-16T09:34:11.922Z,1.50
2023-05-16T09:36:43.655Z,0.70
2023-05-16T09:39:16.088Z,0.70
2023-05-16T09:41:45.444Z,1.40
2023-05-16T09:44:13.279Z,0.68
2023-05-16T09:46:42.386Z,2.00
2023-05-16T09:49:14.104Z,1.80
2023-05-16T09:51:42.227Z,1.75
2023-05-16T09:54:10.232Z,1.02
2023-05-16T09:56:51.625Z,0.82
2023-05-16T09:59:19.404Z,0.70
2023-05-16T10:01:49.048Z,1.70
2023-05-16T10:04:17.287Z,1.27
2023-05-16T10:06:47.733Z,0.90
2023-05-16T10:09:18.595Z,3.17
2023-05-16T10:11:50.156Z,1.60
2023-05-16T10:14:19.502Z,1.70
2023-05-16T10:16:49.754Z,0.70
2023-05-16T10:19:21.671Z,2.00
2023-05-16T10:22:02.812Z,0.50
2023-05-16T10:24:48.221Z,0.65
2023-05-16T10:27:19.316Z,2.00
2023-05-16T10:29:54.737Z,0.60
2023-05-16T10:32:26.302Z,0.70
2023-05-16T10:34:56.171Z,0.88
2023-05-16T10:37:24.963Z,2.05
2023-05-16T10:39:53.215Z,4.22
2023-05-16T10:42:21.370Z,0.82
2023-05-16T10:44:58.479Z,0.70
2023-05-16T10:47:34.096Z,0.35
2023-05-16T10:50:01.857Z,1.02
2023-05-16T10:52:35.816Z,0.40
2023-05-16T10:55:07.013Z,2.08
2023-05-16T10:57:36.688Z,0.80
2023-05-16T11:00:08.405Z,2.40
2023-05-16T11:02:42.047Z,2.97
2023-05-16T11:05:19.103Z,2.33
2023-05-16T11:08:05.202Z,6.50
2023-05-16T11:10:33.445Z,1.63
2023-05-16T11:13:07.955Z,1.55
2023-05-16T11:15:37.520Z,2.17
2023-05-16T11:18:08.725Z,0.30
2023-05-16T11:20:39.597Z,1.65
2023-05-16T11:23:20.579Z,0.50
2023-05-16T11:25:57.404Z,1.70
2023-05-16T11:28:27.014Z,0.47
2023-05-16T11:31:00.160Z,0.50
2023-05-16T11:33:31.043Z,2.45
2023-05-16T11:36:15.101Z,0.47
2023-05-16T11:38:44.417Z,1.55
2023-05-16T11:41:14.901Z,0.77
2023-05-16T11:43:45.180Z,0.50
2023-05-16T11:46:14.489Z,0.70
2023-05-16T11:48:42.589Z,1.50
2023-05-16T11:51:11.869Z,0.68
2023-05-16T11:53:39.728Z,2.55
2023-05-16T11:56:08.871Z,0.70
2023-05-16T11:58:38.490Z,1.02
2023-05-16T12:01:06.694Z,0.93
2023-05-16T12:03:36.107Z,4.38
2023-05-16T12:06:04.115Z,1.15
2023-05-16T12:08:31.978Z,1.25
2023-05-16T12:11:00.452Z,1.10
2023-05-16T12:13:28.252Z,1.13
2023-05-16T12:15:58.663Z,1.83
2023-05-16T12:18:27.043Z,1.27
2023-05-16T12:20:54.892Z,1.23
2023-05-16T12:23:22.743Z,0.88
2023-05-16T12:25:50.847Z,1.73
2023-05-16T12:28:18.752Z,1.02
2023-05-16T12:30:48.160Z,2.40
2023-05-16T12:33:17.324Z,1.25
2023-05-16T12:35:47.428Z,2.97
2023-05-16T12:38:17.787Z,1.63
2023-05-16T12:40:46.821Z,1.00
2023-05-16T12:43:21.378Z,2.03
2023-05-16T12:45:53.465Z,1.05
2023-05-16T12:48:24.768Z,2.90
2023-05-16T12:50:53.477Z,2.17
2023-05-16T12:53:21.494Z,2.17
2023-05-16T12:55:49.308Z,3.42
2023-05-16T12:58:20.234Z,3.85
2023-05-16T13:00:49.582Z,6.32
2023-05-16T13:03:17.533Z,3.00
2023-05-16T13:05:47.842Z,1.10
2023-05-16T13:08:15.979Z,1.00
2023-05-16T13:10:45.756Z,3.05
2023-05-16T13:13:22.028Z,3.42
2023-05-16T13:15:57.143Z,2.53
2023-05-16T13:18:25.015Z,2.42
2023-05-16T13:20:54.650Z,2.80
2023-05-16T13:23:22.424Z,3.30
2023-05-16T13:25:50.325Z,3.17
2023-05-16T13:28:18.100Z,4.97
2023-05-16T13:30:49.835Z,1.58
2023-05-16T13:33:18.049Z,2.75
2023-05-16T13:35:45.934Z,3.10
2023-05-16T13:38:15.410Z,2.30
2023-05-16T13:40:43.255Z,3.58
2023-05-16T13:43:15.732Z,2.80
2023-05-16T13:45:44.251Z,4.28
2023-05-16T13:48:12.239Z,3.63
2023-05-16T13:50:44.065Z,3.17
2023-05-16T13:53:14.457Z,2.75
2023-05-16T13:55:42.630Z,3.95
2023-05-16T13:58:10.894Z,4.50
2023-05-16T14:00:45.317Z,4.07
2023-05-16T14:03:14.493Z,4.10
2023-05-16T14:05:43.149Z,3.97
2023-05-16T14:08:10.982Z,5.43
2023-05-16T14:10:38.694Z,3.08
2023-05-16T14:13:06.580Z,3.15
2023-05-16T14:15:34.446Z,5.50
2023-05-16T14:18:06.157Z,5.22
2023-05-16T14:20:34.107Z,8.25
2023-05-16T14:23:02.205Z,6.18
2023-05-16T14:25:30.298Z,5.93
2023-05-16T14:27:58.885Z,5.07
2023-05-16T14:30:27.454Z,3.70
2023-05-16T14:32:56.230Z,2.70
2023-05-16T14:35:26.935Z,4.63
2023-05-16T14:37:55.145Z,1.57
2023-05-16T14:40:23.531Z,4.95
2023-05-16T14:42:51.577Z,6.03
2023-05-16T14:45:19.519Z,3.15
2023-05-16T14:47:48.441Z,2.85
2023-05-16T14:50:16.205Z,2.42
2023-05-16T14:52:44.955Z,4.03
2023-05-16T14:55:12.885Z,3.38
2023-05-16T14:57:42.768Z,4.28
2023-05-16T15:00:15.432Z,3.60
2023-05-16T15:02:43.869Z,3.33
2023-05-16T15:05:11.669Z,2.15
2023-05-16T15:07:39.777Z,6.43
2023-05-16T15:10:11.440Z,7.80
2023-05-16T15:12:41.106Z,5.78
2023-05-16T15:15:14.934Z,2.08
2023-05-16T15:17:44.495Z,4.10
2023-05-16T15:20:13.304Z,3.70
2023-05-16T15:22:41.682Z,5.18
2023-05-16T15:25:10.832Z,1.60
2023-05-16T15:27:38.581Z,2.75
2023-05-16T15:30:07.316Z,6.00
2023-05-16T15:32:35.254Z,6.45
2023-05-16T15:35:03.940Z,7.25
2023-05-16T15:37:31.726Z,3.20
2023-05-16T15:39:59.477Z,3.50
2023-05-16T15:42:27.420Z,3.05
2023-05-16T15:44:55.392Z,2.85
2023-05-16T15:47:23.325Z,2.65
2023-05-16T15:49:51.130Z,4.38
2023-05-16T15:52:20.617Z,3.72
2023-05-16T15:54:50.422Z,4.22
2023-05-16T15:57:19.221Z,2.25
2023-05-16T15:59:47.023Z,3.17
2023-05-16T16:02:16.855Z,3.40
2023-05-16T16:04:44.600Z,5.47
2023-05-16T16:07:12.694Z,4.00
2023-05-16T16:09:40.883Z,3.33
2023-05-16T16:12:08.919Z,2.05
2023-05-16T16:14:37.034Z,4.40
2023-05-16T16:17:07.468Z,2.42
2023-05-16T16:19:35.482Z,1.43
2023-05-16T16:22:04.986Z,2.10
2023-05-16T16:24:32.779Z,2.45
2023-05-16T16:27:00.697Z,2.25
2023-05-16T16:29:29.084Z,1.67
2023-05-16T16:31:57.011Z,2.17
2023-05-16T16:34:25.042Z,3.28
2023-05-16T16:36:53.015Z,3.42
2023-05-16T16:39:21.371Z,3.03
2023-05-16T16:41:49.718Z,2.00
2023-05-16T16:44:19.117Z,1.85
2023-05-16T16:46:47.063Z,2.13
2023-05-16T16:49:14.947Z,3.53
2023-05-16T16:51:42.824Z,1.35
2023-05-16T16:54:10.553Z,1.55
2023-05-16T16:56:38.406Z,6.78
2023-05-16T16:59:06.766Z,1.70
2023-05-16T17:01:35.153Z,2.80
2023-05-16T17:04:03.111Z,4.30
2023-05-16T17:06:30.924Z,1.60
2023-05-16T17:09:03.676Z,2.72
2023-05-16T17:11:31.822Z,2.00
2023-05-16T17:13:59.962Z,4.38
2023-05-16T17:16:29.137Z,2.67
2023-05-16T17:19:00.701Z,1.80
2023-05-16T17:21:28.525Z,4.53
2023-05-16T17:23:58.237Z,1.45
2023-05-16T17:26:29.102Z,4.25
2023-05-16T17:29:00.167Z,2.00
2023-05-16T17:31:30.799Z,1.48
2023-05-16T17:33:58.654Z,3.80
2023-05-16T17:36:26.454Z,3.10
2023-05-16T17:38:56.248Z,2.67
2023-05-16T17:41:25.465Z,3.45
2023-05-16T17:43:54.405Z,4.97
2023-05-16T17:46:22.196Z,2.95
2023-05-16T17:48:50.162Z,3.38
2023-05-16T17:51:17.994Z,3.03
2023-05-16T17:53:45.827Z,2.75
2023-05-16T17:56:13.961Z,0.77
2023-05-16T17:58:42.724Z,1.40
2023-05-16T18:01:10.695Z,2.00
2023-05-16T18:03:43.321Z,1.88
2023-05-16T18:06:12.312Z,2.58
2023-05-16T18:08:40.200Z,2.10
2023-05-16T18:11:08.070Z,3.28
2023-05-16T18:13:35.882Z,2.55
2023-05-16T18:16:03.836Z,1.67
2023-05-16T18:18:32.056Z,1.35
2023-05-16T18:20:59.834Z,1.67
2023-05-16T18:23:27.596Z,2.80
2023-05-16T18:25:55.426Z,2.72
2023-05-16T18:28:23.228Z,2.78
2023-05-16T18:30:51.338Z,5.80
2023-05-16T18:33:19.116Z,4.72
2023-05-16T18:35:46.919Z,6.35
2023-05-16T18:38:24.145Z,9.52
2023-05-16T18:41:01.901Z,2.50
2023-05-16T18:43:30.647Z,2.42
2023-05-16T18:45:58.403Z,1.77
2023-05-16T18:48:28.921Z,0.80
2023-05-16T18:50:58.942Z,2.03
2023-05-16T18:53:26.946Z,1.00
2023-05-16T18:55:54.806Z,2.28
2023-05-16T18:58:22.736Z,0.90
2023-05-16T19:00:50.790Z,2.50
2023-05-16T19:03:19.070Z,1.10
2023-05-16T19:05:48.820Z,0.80
2023-05-16T19:08:16.811Z,2.35
2023-05-16T19:10:44.882Z,5.20
2023-05-16T19:13:12.759Z,5.15
2023-05-16T19:15:40.557Z,1.55
2023-05-16T19:18:08.377Z,1.85
2023-05-16T19:20:36.652Z,2.05
2023-05-16T19:23:04.432Z,3.63
2023-05-16T19:25:32.591Z,3.67
2023-05-16T19:28:00.557Z,1.40
2023-05-16T19:30:28.617Z,1.75
2023-05-16T19:32:56.632Z,2.90
2023-05-16T19:35:24.550Z,5.50
2023-05-16T19:37:52.311Z,2.42
2023-05-16T19:40:20.265Z,1.83
2023-05-16T19:42:48.406Z,2.33
2023-05-16T19:45:16.338Z,1.80
2023-05-16T19:47:45.167Z,0.75
2023-05-16T19:50:13.027Z,2.35
2023-05-16T19:52:40.883Z,1.52
2023-05-16T19:55:10.461Z,2.97
2023-05-16T19:57:38.237Z,6.82
2023-05-16T20:00:08.327Z,2.28
2023-05-16T20:02:45.436Z,1.10
2023-05-16T20:05:14.498Z,1.85
2023-05-16T20:07:42.362Z,1.13
2023-05-16T20:10:10.671Z,2.75
2023-05-16T20:12:39.180Z,3.13
2023-05-16T20:15:08.869Z,2.42
2023-05-16T20:17:38.082Z,3.83
2023-05-16T20:20:08.997Z,1.33
2023-05-16T20:22:41.698Z,1.60
2023-05-16T20:25:13.032Z,3.17
2023-05-16T20:27:41.016Z,0.80
2023-05-16T20:30:09.829Z,2.30
2023-05-16T20:32:38.134Z,0.85
2023-05-16T20:35:09.175Z,2.10
2023-05-16T20:37:37.633Z,2.35
2023-05-16T20:40:06.404Z,2.25
2023-05-16T20:42:34.644Z,2.42
2023-05-16T20:45:02.424Z,3.35
2023-05-16T20:47:30.504Z,6.30
2023-05-16T20:49:59.736Z,2.70
2023-05-16T20:52:27.874Z,2.33
2023-05-16T20:54:58.198Z,4.38
2023-05-16T20:57:26.134Z,4.03
2023-05-16T20:59:54.005Z,6.90
2023-05-16T21:02:21.735Z,3.67
2023-05-16T21:04:49.559Z,3.92
2023-05-16T21:07:17.344Z,2.55
2023-05-16T21:09:45.407Z,3.75
2023-05-16T21:12:13.206Z,4.32
2023-05-16T21:14:41.934Z,2.88
2023-05-16T21:17:09.775Z,2.58
2023-05-16T21:19:38.645Z,4.15
2023-05-16T21:22:06.772Z,3.30
2023-05-16T21:24:35.567Z,3.17
2023-05-16T21:27:04.459Z,3.88
2023-05-16T21:29:32.342Z,4.32
2023-05-16T21:32:00.517Z,2.75
2023-05-16T21:34:28.916Z,3.30
2023-05-16T21:36:57.937Z,3.50
2023-05-16T21:39:25.876Z,2.53
2023-05-16T21:41:53.694Z,3.25
2023-05-16T21:44:21.530Z,2.60
2023-05-16T21:46:49.689Z,5.38
2023-05-16T21:49:17.967Z,2.05
2023-05-16T21:51:46.198Z,4.35
2023-05-16T21:54:17.022Z,3.00
2023-05-16T21:56:44.770Z,3.13
2023-05-16T21:59:13.804Z,2.05
2023-05-16T22:01:41.562Z,1.30
2023-05-16T22:04:09.612Z,2.92
2023-05-16T22:06:37.663Z,2.10
2023-05-16T22:09:05.963Z,3.80
2023-05-16T22:11:34.388Z,2.53
2023-05-16T22:14:02.182Z,2.53
2023-05-16T22:16:29.987Z,1.95
2023-05-16T22:18:57.856Z,3.45
2023-05-16T22:21:25.932Z,2.47
2023-05-16T22:23:53.714Z,3.58
2023-05-16T22:26:21.842Z,3.33
2023-05-16T22:28:49.574Z,2.25
2023-05-16T22:31:17.400Z,2.05
2023-05-16T22:33:45.342Z,1.67
2023-05-16T22:36:13.262Z,4.13
2023-05-16T22:38:40.980Z,2.85
2023-05-16T22:41:08.787Z,2.13
2023-05-16T22:43:36.810Z,0.93
2023-05-16T22:46:04.584Z,1.60
2023-05-16T22:48:32.487Z,2.92
2023-05-16T22:51:02.000Z,3.25
2023-05-16T22:53:30.201Z,1.88
2023-05-16T22:55:57.970Z,4.90
2023-05-16T22:58:25.826Z,3.15
2023-05-16T23:00:53.676Z,3.95
2023-05-16T23:03:21.829Z,1.83
2023-05-16T23:05:49.944Z,1.98
2023-05-16T23:08:17.757Z,2.13
2023-05-16T23:10:45.701Z,3.30
2023-05-16T23:13:13.563Z,2.83
2023-05-16T23:15:41.367Z,5.35
2023-05-16T23:18:09.279Z,3.50
2023-05-16T23:20:37.302Z,2.97
2023-05-16T23:23:05.187Z,2.17
2023-05-16T23:25:32.996Z,2.55
2023-05-16T23:28:00.765Z,4.45
2023-05-16T23:30:28.589Z,2.58
2023-05-16T23:32:56.562Z,5.40
2023-05-16T23:35:24.544Z,4.00
2023-05-16T23:37:52.321Z,4.70
2023-05-16T23:40:20.148Z,5.53
2023-05-16T23:42:47.933Z,2.05
2023-05-16T23:45:16.545Z,3.45
2023-05-16T23:47:44.395Z,3.85
2023-05-16T23:50:12.155Z,2.83
2023-05-16T23:52:39.910Z,3.80
2023-05-16T23:55:08.364Z,2.88
2023-05-16T23:57:36.204Z,3.20
